sensor_id;sensor_type;location;lat;lon;timestamp;P1;durP1;ratioP1;P2;durP2;ratioP2
30458;SDS011;74163;50.912;6.918;2024-02-04T00:00:08;11.93;;;9.35;;
30458;SDS011;74163;50.912;6.918;2024-02-04T00:00:44;14.35;;;9.23;;
30458;SDS011;74163;50.912;6.918;2024-02-04T00:01:28;11.07;;;8.80;;
30458;SDS011;74163;50.912;6.918;2024-02-04T00:02:04;11.43;;;8.57;;
30458;SDS011;74163;50.912;6.918;2024-02-04T00:02:38;11.20;;;8.60;;
30458;SDS011;74163;50.912;6.918;2024-02-04T00:03:13;10.98;;;9.00;;
30458;SDS011;74163;50.912;6.918;2024-02-04T00:03:45;10.73;;;8.23;;
30458;SDS011;74163;50.912;6.918;2024-02-04T00:04:20;11.45;;;9.00;;
30458;SDS011;74163;50.912;6.918;2024-02-04T00:05:04;12.65;;;9.20;;
30458;SDS011;74163;50.912;6.918;2024-02-04T00:05:41;11.73;;;9.15;;
30458;SDS011;74163;50.912;6.918;2024-02-04T00:06:24;11.68;;;8.82;;
30458;SDS011;74163;50.912;6.918;2024-02-04T00:07:04;11.05;;;8.52;;
30458;SDS011;74163;50.912;6.918;2024-02-04T00:07:37;13.77;;;9.68;;
30458;SDS011;74163;50.912;6.918;2024-02-04T00:08:10;11.55;;;9.18;;
30458;SDS011;74163;50.912;6.918;2024-02-04T00:08:42;12.20;;;9.35;;
30458;SDS011;74163;50.912;6.918;2024-02-04T00:09:14;11.82;;;9.10;;
30458;SDS011;74163;50.912;6.918;2024-02-04T00:09:47;13.07;;;9.65;;
30458;SDS011;74163;50.912;6.918;2024-02-04T00:10:24;12.20;;;9.80;;
30458;SDS011;74163;50.912;6.918;2024-02-04T00:10:56;12.30;;;9.45;;
30458;SDS011;74163;50.912;6.918;2024-02-04T00:11:29;12.43;;;9.15;;
30458;SDS011;74163;50.912;6.918;2024-02-04T00:12:04;12.70;;;9.82;;
30458;SDS011;74163;50.912;6.918;2024-02-04T00:12:38;13.45;;;10.40;;
30458;SDS011;74163;50.912;6.918;2024-02-04T00:13:12;11.95;;;9.68;;
30458;SDS011;74163;50.912;6.918;2024-02-04T00:13:49;12.43;;;9.65;;
30458;SDS011;74163;50.912;6.918;2024-02-04T00:14:24;13.07;;;9.75;;
30458;SDS011;74163;50.912;6.918;2024-02-04T00:14:57;12.40;;;9.45;;
30458;SDS011;74163;50.912;6.918;2024-02-04T00:15:35;15.52;;;10.65;;
30458;SDS011;74163;50.912;6.918;2024-02-04T00:16:07;12.13;;;9.55;;
30458;SDS011;74163;50.912;6.918;2024-02-04T00:16:44;14.38;;;10.45;;
30458;SDS011;74163;50.912;6.918;2024-02-04T00:17:16;13.65;;;10.32;;
30458;SDS011;74163;50.912;6.918;2024-02-04T00:17:48;12.82;;;9.88;;
30458;SDS011;74163;50.912;6.918;2024-02-04T00:18:26;13.63;;;10.07;;
30458;SDS011;74163;50.912;6.918;2024-02-04T00:19:06;13.00;;;10.10;;
30458;SDS011;74163;50.912;6.918;2024-02-04T00:19:46;12.43;;;10.15;;
30458;SDS011;74163;50.912;6.918;2024-02-04T00:20:21;13.88;;;10.57;;
30458;SDS011;74163;50.912;6.918;2024-02-04T00:20:56;13.80;;;10.48;;
30458;SDS011;74163;50.912;6.918;2024-02-04T00:21:30;13.23;;;10.73;;
30458;SDS011;74163;50.912;6.918;2024-02-04T00:22:05;12.85;;;9.90;;
30458;SDS011;74163;50.912;6.918;2024-02-04T00:22:54;12.88;;;9.93;;
30458;SDS011;74163;50.912;6.918;2024-02-04T00:23:27;13.85;;;10.48;;
30458;SDS011;74163;50.912;6.918;2024-02-04T00:23:59;13.13;;;9.88;;
30458;SDS011;74163;50.912;6.918;2024-02-04T00:24:31;13.90;;;10.30;;
30458;SDS011;74163;50.912;6.918;2024-02-04T00:25:05;13.20;;;10.25;;
30458;SDS011;74163;50.912;6.918;2024-02-04T00:25:38;13.70;;;10.60;;
30458;SDS011;74163;50.912;6.918;2024-02-04T00:26:11;13.77;;;10.37;;
30458;SDS011;74163;50.912;6.918;2024-02-04T00:26:47;12.75;;;9.73;;
30458;SDS011;74163;50.912;6.918;2024-02-04T00:27:20;13.50;;;9.80;;
30458;SDS011;74163;50.912;6.918;2024-02-04T00:27:52;11.75;;;9.30;;
30458;SDS011;74163;50.912;6.918;2024-02-04T00:28:24;12.10;;;9.10;;
30458;SDS011;74163;50.912;6.918;2024-02-04T00:29:00;11.52;;;9.38;;
30458;SDS011;74163;50.912;6.918;2024-02-04T00:29:40;11.75;;;9.35;;
30458;SDS011;74163;50.912;6.918;2024-02-04T00:30:15;12.70;;;9.77;;
30458;SDS011;74163;50.912;6.918;2024-02-04T00:30:47;12.18;;;9.48;;
30458;SDS011;74163;50.912;6.918;2024-02-04T00:31:50;11.32;;;9.02;;
30458;SDS011;74163;50.912;6.918;2024-02-04T00:32:23;11.10;;;8.48;;
30458;SDS011;74163;50.912;6.918;2024-02-04T00:33:02;10.88;;;8.55;;
30458;SDS011;74163;50.912;6.918;2024-02-04T00:33:37;10.57;;;8.75;;
30458;SDS011;74163;50.912;6.918;2024-02-04T00:34:13;10.40;;;8.70;;
30458;SDS011;74163;50.912;6.918;2024-02-04T00:34:46;10.75;;;8.75;;
30458;SDS011;74163;50.912;6.918;2024-02-04T00:35:20;10.20;;;8.75;;
30458;SDS011;74163;50.912;6.918;2024-02-04T00:36:01;10.05;;;8.23;;
30458;SDS011;74163;50.912;6.918;2024-02-04T00:36:32;10.30;;;8.02;;
30458;SDS011;74163;50.912;6.918;2024-02-04T00:37:07;8.80;;;7.83;;
30458;SDS011;74163;50.912;6.918;2024-02-04T00:37:39;9.68;;;8.35;;
30458;SDS011;74163;50.912;6.918;2024-02-04T00:38:20;9.05;;;7.50;;
30458;SDS011;74163;50.912;6.918;2024-02-04T00:38:56;8.93;;;7.80;;
30458;SDS011;74163;50.912;6.918;2024-02-04T00:39:32;9.80;;;7.65;;
30458;SDS011;74163;50.912;6.918;2024-02-04T00:40:13;8.98;;;7.45;;
30458;SDS011;74163;50.912;6.918;2024-02-04T00:40:47;9.18;;;7.57;;
30458;SDS011;74163;50.912;6.918;2024-02-04T00:41:28;9.35;;;7.50;;
30458;SDS011;74163;50.912;6.918;2024-02-04T00:42:00;8.40;;;7.30;;
30458;SDS011;74163;50.912;6.918;2024-02-04T00:42:32;8.90;;;7.23;;
30458;SDS011;74163;50.912;6.918;2024-02-04T00:43:08;7.88;;;6.38;;
30458;SDS011;74163;50.912;6.918;2024-02-04T00:43:40;7.90;;;6.60;;
30458;SDS011;74163;50.912;6.918;2024-02-04T00:44:14;8.10;;;6.67;;
30458;SDS011;74163;50.912;6.918;2024-02-04T00:44:46;7.97;;;6.45;;
30458;SDS011;74163;50.912;6.918;2024-02-04T00:45:18;8.02;;;6.57;;
30458;SDS011;74163;50.912;6.918;2024-02-04T00:45:50;7.25;;;6.05;;
30458;SDS011;74163;50.912;6.918;2024-02-04T00:46:25;7.00;;;5.97;;
30458;SDS011;74163;50.912;6.918;2024-02-04T00:47:04;7.53;;;5.97;;
30458;SDS011;74163;50.912;6.918;2024-02-04T00:47:36;7.55;;;6.20;;
30458;SDS011;74163;50.912;6.918;2024-02-04T00:48:09;6.88;;;5.65;;
30458;SDS011;74163;50.912;6.918;2024-02-04T00:48:44;7.07;;;5.40;;
30458;SDS011;74163;50.912;6.918;2024-02-04T00:49:21;6.65;;;5.53;;
30458;SDS011;74163;50.912;6.918;2024-02-04T00:50:12;6.90;;;5.40;;
30458;SDS011;74163;50.912;6.918;2024-02-04T00:50:44;6.45;;;5.15;;
30458;SDS011;74163;50.912;6.918;2024-02-04T00:51:19;7.53;;;4.90;;
30458;SDS011;74163;50.912;6.918;2024-02-04T00:52:01;6.95;;;4.95;;
30458;SDS011;74163;50.912;6.918;2024-02-04T00:52:33;5.90;;;4.80;;
30458;SDS011;74163;50.912;6.918;2024-02-04T00:53:05;5.80;;;4.60;;
30458;SDS011;74163;50.912;6.918;2024-02-04T00:53:40;5.40;;;4.53;;
30458;SDS011;74163;50.912;6.918;2024-02-04T00:54:21;5.60;;;4.30;;
30458;SDS011;74163;50.912;6.918;2024-02-04T00:55:01;5.50;;;4.50;;
30458;SDS011;74163;50.912;6.918;2024-02-04T00:55:33;5.50;;;4.30;;
30458;SDS011;74163;50.912;6.918;2024-02-04T00:56:07;5.95;;;4.60;;
30458;SDS011;74163;50.912;6.918;2024-02-04T00:56:53;5.55;;;4.28;;
30458;SDS011;74163;50.912;6.918;2024-02-04T00:57:25;5.63;;;4.32;;
30458;SDS011;74163;50.912;6.918;2024-02-04T00:58:18;4.93;;;4.13;;
30458;SDS011;74163;50.912;6.918;2024-02-04T00:58:53;4.57;;;3.80;;
30458;SDS011;74163;50.912;6.918;2024-02-04T00:59:27;5.00;;;4.20;;
30458;SDS011;74163;50.912;6.918;2024-02-04T01:00:03;4.80;;;4.18;;
30458;SDS011;74163;50.912;6.918;2024-02-04T01:00:38;4.53;;;3.63;;
30458;SDS011;74163;50.912;6.918;2024-02-04T01:01:14;4.82;;;3.90;;
30458;SDS011;74163;50.912;6.918;2024-02-04T01:01:52;4.20;;;3.50;;
30458;SDS011;74163;50.912;6.918;2024-02-04T01:02:34;4.00;;;3.30;;
30458;SDS011;74163;50.912;6.918;2024-02-04T01:03:06;4.57;;;3.58;;
30458;SDS011;74163;50.912;6.918;2024-02-04T01:03:38;4.38;;;3.17;;
30458;SDS011;74163;50.912;6.918;2024-02-04T01:04:13;4.80;;;3.53;;
30458;SDS011;74163;50.912;6.918;2024-02-04T01:04:46;4.97;;;3.42;;
30458;SDS011;74163;50.912;6.918;2024-02-04T01:05:19;4.55;;;3.30;;
30458;SDS011;74163;50.912;6.918;2024-02-04T01:05:53;4.13;;;3.33;;
30458;SDS011;74163;50.912;6.918;2024-02-04T01:06:30;4.20;;;3.22;;
30458;SDS011;74163;50.912;6.918;2024-02-04T01:07:13;4.20;;;3.28;;
30458;SDS011;74163;50.912;6.918;2024-02-04T01:07:49;4.70;;;3.40;;
30458;SDS011;74163;50.912;6.918;2024-02-04T01:08:23;3.95;;;3.08;;
30458;SDS011;74163;50.912;6.918;2024-02-04T01:08:55;4.38;;;3.17;;
30458;SDS011;74163;50.912;6.918;2024-02-04T01:09:30;4.00;;;2.90;;
30458;SDS011;74163;50.912;6.918;2024-02-04T01:10:02;4.47;;;3.30;;
30458;SDS011;74163;50.912;6.918;2024-02-04T01:10:40;3.85;;;3.10;;
30458;SDS011;74163;50.912;6.918;2024-02-04T01:11:14;3.90;;;2.90;;
30458;SDS011;74163;50.912;6.918;2024-02-04T01:11:57;4.80;;;3.40;;
30458;SDS011;74163;50.912;6.918;2024-02-04T01:12:33;4.10;;;2.80;;
30458;SDS011;74163;50.912;6.918;2024-02-04T01:13:07;3.75;;;2.90;;
30458;SDS011;74163;50.912;6.918;2024-02-04T01:13:39;4.32;;;2.95;;
30458;SDS011;74163;50.912;6.918;2024-02-04T01:14:12;3.90;;;3.22;;
30458;SDS011;74163;50.912;6.918;2024-02-04T01:14:50;3.80;;;3.03;;
30458;SDS011;74163;50.912;6.918;2024-02-04T01:15:32;4.07;;;2.70;;
30458;SDS011;74163;50.912;6.918;2024-02-04T01:16:13;3.72;;;3.08;;
30458;SDS011;74163;50.912;6.918;2024-02-04T01:16:53;3.50;;;2.70;;
30458;SDS011;74163;50.912;6.918;2024-02-04T01:17:29;3.90;;;2.55;;
30458;SDS011;74163;50.912;6.918;2024-02-04T01:18:01;3.47;;;2.70;;
30458;SDS011;74163;50.912;6.918;2024-02-04T01:18:41;4.53;;;3.08;;
30458;SDS011;74163;50.912;6.918;2024-02-04T01:19:14;3.72;;;2.80;;
30458;SDS011;74163;50.912;6.918;2024-02-04T01:19:50;3.53;;;3.00;;
30458;SDS011;74163;50.912;6.918;2024-02-04T01:20:23;4.22;;;2.65;;
30458;SDS011;74163;50.912;6.918;2024-02-04T01:20:58;3.88;;;3.00;;
30458;SDS011;74163;50.912;6.918;2024-02-04T01:21:36;3.90;;;2.95;;
30458;SDS011;74163;50.912;6.918;2024-02-04T01:22:13;5.10;;;3.00;;
30458;SDS011;74163;50.912;6.918;2024-02-04T01:22:48;3.20;;;2.47;;
30458;SDS011;74163;50.912;6.918;2024-02-04T01:23:20;3.78;;;2.83;;
30458;SDS011;74163;50.912;6.918;2024-02-04T01:23:52;3.83;;;2.95;;
30458;SDS011;74163;50.912;6.918;2024-02-04T01:24:25;3.40;;;2.60;;
30458;SDS011;74163;50.912;6.918;2024-02-04T01:24:58;3.88;;;2.95;;
30458;SDS011;74163;50.912;6.918;2024-02-04T01:25:33;4.07;;;3.05;;
30458;SDS011;74163;50.912;6.918;2024-02-04T01:26:05;3.60;;;2.60;;
30458;SDS011;74163;50.912;6.918;2024-02-04T01:26:39;3.80;;;3.03;;
30458;SDS011;74163;50.912;6.918;2024-02-04T01:27:14;3.75;;;2.83;;
30458;SDS011;74163;50.912;6.918;2024-02-04T01:27:52;4.53;;;2.83;;
30458;SDS011;74163;50.912;6.918;2024-02-04T01:28:28;3.87;;;2.90;;
30458;SDS011;74163;50.912;6.918;2024-02-04T01:29:11;4.10;;;2.97;;
30458;SDS011;74163;50.912;6.918;2024-02-04T01:29:44;3.80;;;2.70;;
30458;SDS011;74163;50.912;6.918;2024-02-04T01:30:20;3.50;;;2.75;;
30458;SDS011;74163;50.912;6.918;2024-02-04T01:30:52;3.20;;;2.42;;
30458;SDS011;74163;50.912;6.918;2024-02-04T01:31:29;3.70;;;2.78;;
30458;SDS011;74163;50.912;6.918;2024-02-04T01:32:02;3.55;;;2.63;;
30458;SDS011;74163;50.912;6.918;2024-02-04T01:32:46;3.58;;;2.50;;
30458;SDS011;74163;50.912;6.918;2024-02-04T01:33:30;3.47;;;2.30;;
30458;SDS011;74163;50.912;6.918;2024-02-04T01:34:10;4.47;;;2.40;;
30458;SDS011;74163;50.912;6.918;2024-02-04T01:34:47;4.65;;;2.70;;
30458;SDS011;74163;50.912;6.918;2024-02-04T01:35:33;3.47;;;2.30;;
30458;SDS011;74163;50.912;6.918;2024-02-04T01:36:07;3.28;;;2.42;;
30458;SDS011;74163;50.912;6.918;2024-02-04T01:36:45;3.33;;;2.30;;
30458;SDS011;74163;50.912;6.918;2024-02-04T01:37:18;4.00;;;2.45;;
30458;SDS011;74163;50.912;6.918;2024-02-04T01:37:50;3.67;;;2.58;;
30458;SDS011;74163;50.912;6.918;2024-02-04T01:38:25;3.70;;;2.50;;
30458;SDS011;74163;50.912;6.918;2024-02-04T01:39:06;3.20;;;2.30;;
30458;SDS011;74163;50.912;6.918;2024-02-04T01:39:38;3.08;;;2.35;;
30458;SDS011;74163;50.912;6.918;2024-02-04T01:40:13;3.35;;;2.35;;
30458;SDS011;74163;50.912;6.918;2024-02-04T01:40:45;3.15;;;2.50;;
30458;SDS011;74163;50.912;6.918;2024-02-04T01:41:21;3.45;;;2.42;;
30458;SDS011;74163;50.912;6.918;2024-02-04T01:41:53;3.40;;;2.40;;
30458;SDS011;74163;50.912;6.918;2024-02-04T01:42:32;3.10;;;2.50;;
30458;SDS011;74163;50.912;6.918;2024-02-04T01:43:05;3.05;;;2.00;;
30458;SDS011;74163;50.912;6.918;2024-02-04T01:43:40;4.75;;;2.17;;
30458;SDS011;74163;50.912;6.918;2024-02-04T01:44:15;3.38;;;2.63;;
30458;SDS011;74163;50.912;6.918;2024-02-04T01:44:51;3.10;;;2.20;;
30458;SDS011;74163;50.912;6.918;2024-02-04T01:45:24;3.45;;;2.67;;
30458;SDS011;74163;50.912;6.918;2024-02-04T01:46:00;2.90;;;2.30;;
30458;SDS011;74163;50.912;6.918;2024-02-04T01:46:36;3.50;;;2.58;;
30458;SDS011;74163;50.912;6.918;2024-02-04T01:47:08;3.22;;;2.50;;
30458;SDS011;74163;50.912;6.918;2024-02-04T01:47:42;3.40;;;2.50;;
30458;SDS011;74163;50.912;6.918;2024-02-04T01:48:16;4.30;;;2.58;;
30458;SDS011;74163;50.912;6.918;2024-02-04T01:48:52;3.30;;;2.65;;
30458;SDS011;74163;50.912;6.918;2024-02-04T01:49:26;3.40;;;2.50;;
30458;SDS011;74163;50.912;6.918;2024-02-04T01:49:59;3.80;;;2.63;;
30458;SDS011;74163;50.912;6.918;2024-02-04T01:50:31;4.20;;;2.30;;
30458;SDS011;74163;50.912;6.918;2024-02-04T01:51:06;3.60;;;2.50;;
30458;SDS011;74163;50.912;6.918;2024-02-04T01:51:55;4.18;;;2.60;;
30458;SDS011;74163;50.912;6.918;2024-02-04T01:52:34;3.38;;;2.58;;
30458;SDS011;74163;50.912;6.918;2024-02-04T01:53:10;3.30;;;2.40;;
30458;SDS011;74163;50.912;6.918;2024-02-04T01:53:45;3.72;;;2.70;;
30458;SDS011;74163;50.912;6.918;2024-02-04T01:54:18;3.60;;;2.75;;
30458;SDS011;74163;50.912;6.918;2024-02-04T01:54:51;3.60;;;2.78;;
30458;SDS011;74163;50.912;6.918;2024-02-04T01:55:28;3.67;;;2.80;;
30458;SDS011;74163;50.912;6.918;2024-02-04T01:56:00;3.70;;;2.60;;
30458;SDS011;74163;50.912;6.918;2024-02-04T01:57:19;3.50;;;2.85;;
30458;SDS011;74163;50.912;6.918;2024-02-04T01:57:48;4.10;;;2.78;;
30458;SDS011;74163;50.912;6.918;2024-02-04T01:58:27;3.83;;;2.97;;
30458;SDS011;74163;50.912;6.918;2024-02-04T01:59:00;3.50;;;2.90;;
30458;SDS011;74163;50.912;6.918;2024-02-04T01:59:35;3.95;;;2.83;;
30458;SDS011;74163;50.912;6.918;2024-02-04T02:00:12;3.83;;;2.92;;
30458;SDS011;74163;50.912;6.918;2024-02-04T02:00:46;3.97;;;2.90;;
30458;SDS011;74163;50.912;6.918;2024-02-04T02:01:21;3.92;;;3.20;;
30458;SDS011;74163;50.912;6.918;2024-02-04T02:01:59;4.75;;;3.20;;
30458;SDS011;74163;50.912;6.918;2024-02-04T02:02:38;3.72;;;2.95;;
30458;SDS011;74163;50.912;6.918;2024-02-04T02:03:11;3.72;;;3.05;;
30458;SDS011;74163;50.912;6.918;2024-02-04T02:03:52;3.78;;;3.08;;
30458;SDS011;74163;50.912;6.918;2024-02-04T02:04:29;3.78;;;2.78;;
30458;SDS011;74163;50.912;6.918;2024-02-04T02:05:10;3.97;;;3.20;;
30458;SDS011;74163;50.912;6.918;2024-02-04T02:05:42;4.40;;;3.40;;
30458;SDS011;74163;50.912;6.918;2024-02-04T02:06:14;4.15;;;3.15;;
30458;SDS011;74163;50.912;6.918;2024-02-04T02:06:49;3.90;;;3.00;;
30458;SDS011;74163;50.912;6.918;2024-02-04T02:07:23;3.78;;;3.15;;
30458;SDS011;74163;50.912;6.918;2024-02-04T02:07:55;3.60;;;3.00;;
30458;SDS011;74163;50.912;6.918;2024-02-04T02:08:27;4.13;;;3.15;;
30458;SDS011;74163;50.912;6.918;2024-02-04T02:09:01;3.97;;;3.05;;
30458;SDS011;74163;50.912;6.918;2024-02-04T02:09:34;4.30;;;3.20;;
30458;SDS011;74163;50.912;6.918;2024-02-04T02:10:08;4.07;;;3.05;;
30458;SDS011;74163;50.912;6.918;2024-02-04T02:10:41;4.88;;;3.67;;
30458;SDS011;74163;50.912;6.918;2024-02-04T02:11:17;3.83;;;3.20;;
30458;SDS011;74163;50.912;6.918;2024-02-04T02:11:55;4.25;;;3.22;;
30458;SDS011;74163;50.912;6.918;2024-02-04T02:12:39;3.80;;;3.10;;
30458;SDS011;74163;50.912;6.918;2024-02-04T02:13:16;4.05;;;3.20;;
30458;SDS011;74163;50.912;6.918;2024-02-04T02:14:01;3.97;;;3.13;;
30458;SDS011;74163;50.912;6.918;2024-02-04T02:14:37;4.72;;;3.15;;
30458;SDS011;74163;50.912;6.918;2024-02-04T02:15:14;5.03;;;3.92;;
30458;SDS011;74163;50.912;6.918;2024-02-04T02:15:51;4.72;;;3.42;;
30458;SDS011;74163;50.912;6.918;2024-02-04T02:16:28;4.28;;;3.30;;
30458;SDS011;74163;50.912;6.918;2024-02-04T02:17:04;4.30;;;3.10;;
30458;SDS011;74163;50.912;6.918;2024-02-04T02:17:42;4.25;;;3.42;;
30458;SDS011;74163;50.912;6.918;2024-02-04T02:18:23;4.55;;;3.38;;
30458;SDS011;74163;50.912;6.918;2024-02-04T02:19:03;4.70;;;3.80;;
30458;SDS011;74163;50.912;6.918;2024-02-04T02:19:52;5.10;;;3.65;;
30458;SDS011;74163;50.912;6.918;2024-02-04T02:20:32;5.65;;;3.58;;
30458;SDS011;74163;50.912;6.918;2024-02-04T02:21:19;5.38;;;4.10;;
30458;SDS011;74163;50.912;6.918;2024-02-04T02:22:22;5.70;;;3.83;;
30458;SDS011;74163;50.912;6.918;2024-02-04T02:23:03;5.90;;;4.00;;
30458;SDS011;74163;50.912;6.918;2024-02-04T02:23:44;4.85;;;3.70;;
30458;SDS011;74163;50.912;6.918;2024-02-04T02:24:39;5.72;;;3.70;;
30458;SDS011;74163;50.912;6.918;2024-02-04T02:25:24;6.28;;;3.97;;
30458;SDS011;74163;50.912;6.918;2024-02-04T02:26:05;5.40;;;3.90;;
30458;SDS011;74163;50.912;6.918;2024-02-04T02:26:45;5.32;;;3.75;;
30458;SDS011;74163;50.912;6.918;2024-02-04T02:27:19;5.82;;;3.80;;
30458;SDS011;74163;50.912;6.918;2024-02-04T02:27:56;5.38;;;3.70;;
30458;SDS011;74163;50.912;6.918;2024-02-04T02:28:31;6.60;;;4.10;;
30458;SDS011;74163;50.912;6.918;2024-02-04T02:29:08;5.63;;;4.00;;
30458;SDS011;74163;50.912;6.918;2024-02-04T02:29:51;7.10;;;4.50;;
30458;SDS011;74163;50.912;6.918;2024-02-04T02:30:26;6.22;;;4.40;;
30458;SDS011;74163;50.912;6.918;2024-02-04T02:31:01;5.82;;;4.28;;
30458;SDS011;74163;50.912;6.918;2024-02-04T02:31:38;6.07;;;4.43;;
30458;SDS011;74163;50.912;6.918;2024-02-04T02:32:19;8.05;;;4.78;;
30458;SDS011;74163;50.912;6.918;2024-02-04T02:32:54;6.20;;;4.30;;
30458;SDS011;74163;50.912;6.918;2024-02-04T02:33:28;7.82;;;4.45;;
30458;SDS011;74163;50.912;6.918;2024-02-04T02:34:00;7.07;;;4.53;;
30458;SDS011;74163;50.912;6.918;2024-02-04T02:34:33;7.68;;;4.40;;
30458;SDS011;74163;50.912;6.918;2024-02-04T02:35:10;6.13;;;4.13;;
30458;SDS011;74163;50.912;6.918;2024-02-04T02:35:43;5.60;;;4.30;;
30458;SDS011;74163;50.912;6.918;2024-02-04T02:36:20;6.15;;;4.00;;
30458;SDS011;74163;50.912;6.918;2024-02-04T02:36:56;7.20;;;4.67;;
30458;SDS011;74163;50.912;6.918;2024-02-04T02:37:33;7.78;;;4.82;;
30458;SDS011;74163;50.912;6.918;2024-02-04T02:38:15;7.38;;;4.38;;
30458;SDS011;74163;50.912;6.918;2024-02-04T02:38:52;7.45;;;4.70;;
30458;SDS011;74163;50.912;6.918;2024-02-04T02:39:36;6.85;;;4.43;;
30458;SDS011;74163;50.912;6.918;2024-02-04T02:40:16;6.60;;;4.57;;
30458;SDS011;74163;50.912;6.918;2024-02-04T02:40:57;7.78;;;5.25;;
30458;SDS011;74163;50.912;6.918;2024-02-04T02:41:35;8.15;;;5.25;;
30458;SDS011;74163;50.912;6.918;2024-02-04T02:42:21;6.57;;;4.95;;
30458;SDS011;74163;50.912;6.918;2024-02-04T02:42:58;7.00;;;5.18;;
30458;SDS011;74163;50.912;6.918;2024-02-04T02:43:35;7.97;;;4.95;;
30458;SDS011;74163;50.912;6.918;2024-02-04T02:44:27;10.60;;;5.18;;
30458;SDS011;74163;50.912;6.918;2024-02-04T02:45:13;7.18;;;5.25;;
30458;SDS011;74163;50.912;6.918;2024-02-04T02:45:51;7.45;;;5.00;;
30458;SDS011;74163;50.912;6.918;2024-02-04T02:46:32;8.30;;;5.57;;
30458;SDS011;74163;50.912;6.918;2024-02-04T02:47:20;7.32;;;5.20;;
30458;SDS011;74163;50.912;6.918;2024-02-04T02:48:02;7.78;;;5.40;;
30458;SDS011;74163;50.912;6.918;2024-02-04T02:48:52;8.32;;;5.10;;
30458;SDS011;74163;50.912;6.918;2024-02-04T02:49:31;7.85;;;5.03;;
30458;SDS011;74163;50.912;6.918;2024-02-04T02:50:07;7.35;;;5.20;;
30458;SDS011;74163;50.912;6.918;2024-02-04T02:50:40;6.88;;;4.90;;
30458;SDS011;74163;50.912;6.918;2024-02-04T02:51:12;6.03;;;4.32;;
30458;SDS011;74163;50.912;6.918;2024-02-04T02:51:44;6.13;;;4.22;;
30458;SDS011;74163;50.912;6.918;2024-02-04T02:52:17;6.45;;;4.63;;
30458;SDS011;74163;50.912;6.918;2024-02-04T02:52:51;6.53;;;4.68;;
30458;SDS011;74163;50.912;6.918;2024-02-04T02:53:27;6.05;;;4.25;;
30458;SDS011;74163;50.912;6.918;2024-02-04T02:53:59;6.20;;;4.50;;
30458;SDS011;74163;50.912;6.918;2024-02-04T02:54:31;6.70;;;4.80;;
30458;SDS011;74163;50.912;6.918;2024-02-04T02:55:51;5.35;;;3.80;;
30458;SDS011;74163;50.912;6.918;2024-02-04T02:56:26;6.28;;;4.30;;
30458;SDS011;74163;50.912;6.918;2024-02-04T02:57:02;8.00;;;4.10;;
30458;SDS011;74163;50.912;6.918;2024-02-04T02:57:37;5.97;;;4.13;;
30458;SDS011;74163;50.912;6.918;2024-02-04T02:58:11;5.57;;;3.70;;
30458;SDS011;74163;50.912;6.918;2024-02-04T02:59:04;5.32;;;3.95;;
30458;SDS011;74163;50.912;6.918;2024-02-04T02:59:43;6.60;;;4.10;;
30458;SDS011;74163;50.912;6.918;2024-02-04T03:00:17;6.25;;;4.20;;
30458;SDS011;74163;50.912;6.918;2024-02-04T03:00:49;5.95;;;4.68;;
30458;SDS011;74163;50.912;6.918;2024-02-04T03:01:21;5.78;;;3.83;;
30458;SDS011;74163;50.912;6.918;2024-02-04T03:01:53;6.13;;;4.18;;
30458;SDS011;74163;50.912;6.918;2024-02-04T03:02:26;6.18;;;4.03;;
30458;SDS011;74163;50.912;6.918;2024-02-04T03:02:58;5.55;;;4.40;;
30458;SDS011;74163;50.912;6.918;2024-02-04T03:03:32;5.35;;;4.05;;
30458;SDS011;74163;50.912;6.918;2024-02-04T03:04:21;6.30;;;4.00;;
30458;SDS011;74163;50.912;6.918;2024-02-04T03:05:00;5.63;;;3.85;;
30458;SDS011;74163;50.912;6.918;2024-02-04T03:05:36;6.20;;;3.90;;
30458;SDS011;74163;50.912;6.918;2024-02-04T03:06:12;5.47;;;3.95;;
30458;SDS011;74163;50.912;6.918;2024-02-04T03:06:53;8.00;;;4.25;;
30458;SDS011;74163;50.912;6.918;2024-02-04T03:07:27;6.22;;;3.80;;
30458;SDS011;74163;50.912;6.918;2024-02-04T03:07:59;6.43;;;4.10;;
30458;SDS011;74163;50.912;6.918;2024-02-04T03:08:31;5.15;;;3.53;;
30458;SDS011;74163;50.912;6.918;2024-02-04T03:09:03;5.10;;;3.45;;
30458;SDS011;74163;50.912;6.918;2024-02-04T03:09:38;5.90;;;3.78;;
30458;SDS011;74163;50.912;6.918;2024-02-04T03:10:11;5.93;;;3.63;;
30458;SDS011;74163;50.912;6.918;2024-02-04T03:10:44;6.57;;;4.10;;
30458;SDS011;74163;50.912;6.918;2024-02-04T03:11:16;5.55;;;4.03;;
30458;SDS011;74163;50.912;6.918;2024-02-04T03:11:48;6.20;;;3.88;;
30458;SDS011;74163;50.912;6.918;2024-02-04T03:12:20;5.07;;;3.80;;
30458;SDS011;74163;50.912;6.918;2024-02-04T03:12:52;5.88;;;4.05;;
30458;SDS011;74163;50.912;6.918;2024-02-04T03:13:26;6.40;;;4.05;;
30458;SDS011;74163;50.912;6.918;2024-02-04T03:14:10;5.40;;;3.75;;
30458;SDS011;74163;50.912;6.918;2024-02-04T03:14:45;4.53;;;3.20;;
30458;SDS011;74163;50.912;6.918;2024-02-04T03:15:17;4.60;;;3.35;;
30458;SDS011;74163;50.912;6.918;2024-02-04T03:15:52;4.88;;;3.50;;
30458;SDS011;74163;50.912;6.918;2024-02-04T03:16:25;5.15;;;3.58;;
30458;SDS011;74163;50.912;6.918;2024-02-04T03:16:58;5.13;;;3.38;;
30458;SDS011;74163;50.912;6.918;2024-02-04T03:17:32;5.30;;;3.60;;
30458;SDS011;74163;50.912;6.918;2024-02-04T03:18:14;5.68;;;3.58;;
30458;SDS011;74163;50.912;6.918;2024-02-04T03:18:46;4.38;;;3.10;;
30458;SDS011;74163;50.912;6.918;2024-02-04T03:19:18;4.30;;;3.03;;
30458;SDS011;74163;50.912;6.918;2024-02-04T03:19:50;4.80;;;3.33;;
30458;SDS011;74163;50.912;6.918;2024-02-04T03:20:22;5.03;;;3.67;;
30458;SDS011;74163;50.912;6.918;2024-02-04T03:20:54;4.90;;;3.45;;
30458;SDS011;74163;50.912;6.918;2024-02-04T03:21:26;5.47;;;3.53;;
30458;SDS011;74163;50.912;6.918;2024-02-04T03:21:58;5.45;;;3.60;;
30458;SDS011;74163;50.912;6.918;2024-02-04T03:22:31;5.47;;;3.80;;
30458;SDS011;74163;50.912;6.918;2024-02-04T03:23:03;5.35;;;3.63;;
30458;SDS011;74163;50.912;6.918;2024-02-04T03:23:35;5.10;;;3.20;;
30458;SDS011;74163;50.912;6.918;2024-02-04T03:24:07;5.28;;;3.50;;
30458;SDS011;74163;50.912;6.918;2024-02-04T03:24:39;5.38;;;3.40;;
30458;SDS011;74163;50.912;6.918;2024-02-04T03:25:11;5.28;;;3.40;;
30458;SDS011;74163;50.912;6.918;2024-02-04T03:25:45;5.25;;;3.63;;
30458;SDS011;74163;50.912;6.918;2024-02-04T03:26:17;5.20;;;3.58;;
30458;SDS011;74163;50.912;6.918;2024-02-04T03:26:49;5.78;;;3.50;;
30458;SDS011;74163;50.912;6.918;2024-02-04T03:27:21;4.93;;;3.63;;
30458;SDS011;74163;50.912;6.918;2024-02-04T03:27:53;5.70;;;3.25;;
30458;SDS011;74163;50.912;6.918;2024-02-04T03:28:25;5.30;;;3.70;;
30458;SDS011;74163;50.912;6.918;2024-02-04T03:28:57;4.80;;;3.40;;
30458;SDS011;74163;50.912;6.918;2024-02-04T03:29:29;5.63;;;3.50;;
30458;SDS011;74163;50.912;6.918;2024-02-04T03:30:06;5.38;;;3.35;;
30458;SDS011;74163;50.912;6.918;2024-02-04T03:30:38;6.53;;;3.55;;
30458;SDS011;74163;50.912;6.918;2024-02-04T03:31:10;4.55;;;3.50;;
30458;SDS011;74163;50.912;6.918;2024-02-04T03:31:42;5.13;;;3.63;;
30458;SDS011;74163;50.912;6.918;2024-02-04T03:32:14;5.07;;;3.40;;
30458;SDS011;74163;50.912;6.918;2024-02-04T03:32:46;5.63;;;3.50;;
30458;SDS011;74163;50.912;6.918;2024-02-04T03:33:18;4.65;;;3.28;;
30458;SDS011;74163;50.912;6.918;2024-02-04T03:33:50;5.82;;;3.83;;
30458;SDS011;74163;50.912;6.918;2024-02-04T03:34:23;4.70;;;3.55;;
30458;SDS011;74163;50.912;6.918;2024-02-04T03:35:03;5.93;;;3.83;;
30458;SDS011;74163;50.912;6.918;2024-02-04T03:35:36;5.22;;;3.67;;
30458;SDS011;74163;50.912;6.918;2024-02-04T03:36:09;5.05;;;3.55;;
30458;SDS011;74163;50.912;6.918;2024-02-04T03:36:40;5.35;;;3.47;;
30458;SDS011;74163;50.912;6.918;2024-02-04T03:37:12;5.75;;;4.05;;
30458;SDS011;74163;50.912;6.918;2024-02-04T03:37:44;4.78;;;3.55;;